sensor_id;sensor_type;location;lat;lon;timestamp;P1;durP1;ratioP1;P2;durP2;ratioP2
54599;SDS011;40500;51.084;16.958;2023-04-28T00:01:00;16.40;;;9.70;;
54599;SDS011;40500;51.084;16.958;2023-04-28T00:03:30;19.70;;;11.70;;
54599;SDS011;40500;51.084;16.958;2023-04-28T00:06:01;23.10;;;13.30;;
54599;SDS011;40500;51.084;16.958;2023-04-28T00:08:32;27.10;;;14.30;;
54599;SDS011;40500;51.084;16.958;2023-04-28T00:11:03;20.90;;;11.70;;
54599;SDS011;40500;51.084;16.958;2023-04-28T00:13:36;23.10;;;13.40;;
54599;SDS011;40500;51.084;16.958;2023-04-28T00:16:07;21.60;;;12.70;;
54599;SDS011;40500;51.084;16.958;2023-04-28T00:18:37;29.40;;;14.00;;
54599;SDS011;40500;51.084;16.958;2023-04-28T00:21:08;23.10;;;12.90;;
54599;SDS011;40500;51.084;16.958;2023-04-28T00:23:38;23.10;;;13.40;;
54599;SDS011;40500;51.084;16.958;2023-04-28T00:26:09;24.30;;;13.00;;
54599;SDS011;40500;51.084;16.958;2023-04-28T00:28:42;22.20;;;13.70;;
54599;SDS011;40500;51.084;16.958;2023-04-28T00:31:12;21.50;;;13.30;;
54599;SDS011;40500;51.084;16.958;2023-04-28T00:33:44;21.40;;;11.80;;
54599;SDS011;40500;51.084;16.958;2023-04-28T00:36:14;18.30;;;11.70;;
54599;SDS011;40500;51.084;16.958;2023-04-28T00:38:44;22.10;;;12.90;;
54599;SDS011;40500;51.084;16.958;2023-04-28T00:41:15;28.20;;;15.90;;
54599;SDS011;40500;51.084;16.958;2023-04-28T00:43:46;26.70;;;13.70;;
54599;SDS011;40500;51.084;16.958;2023-04-28T00:46:19;22.00;;;13.70;;
54599;SDS011;40500;51.084;16.958;2023-04-28T00:48:51;24.70;;;13.60;;
54599;SDS011;40500;51.084;16.958;2023-04-28T00:51:21;25.10;;;13.10;;
54599;SDS011;40500;51.084;16.958;2023-04-28T00:53:52;22.60;;;12.40;;
54599;SDS011;40500;51.084;16.958;2023-04-28T00:56:24;27.20;;;13.00;;
54599;SDS011;40500;51.084;16.958;2023-04-28T00:58:58;20.40;;;12.90;;
54599;SDS011;40500;51.084;16.958;2023-04-28T01:01:28;21.30;;;13.20;;
54599;SDS011;40500;51.084;16.958;2023-04-28T01:04:00;25.00;;;12.40;;
54599;SDS011;40500;51.084;16.958;2023-04-28T01:06:31;20.20;;;12.00;;
54599;SDS011;40500;51.084;16.958;2023-04-28T01:09:04;19.80;;;12.60;;
54599;SDS011;40500;51.084;16.958;2023-04-28T01:11:35;20.50;;;12.70;;
54599;SDS011;40500;51.084;16.958;2023-04-28T01:14:11;19.20;;;10.90;;
54599;SDS011;40500;51.084;16.958;2023-04-28T01:16:42;19.40;;;11.30;;
54599;SDS011;40500;51.084;16.958;2023-04-28T01:19:14;21.60;;;12.80;;
54599;SDS011;40500;51.084;16.958;2023-04-28T01:21:49;19.50;;;11.30;;
54599;SDS011;40500;51.084;16.958;2023-04-28T01:24:21;19.10;;;11.00;;
54599;SDS011;40500;51.084;16.958;2023-04-28T01:26:51;19.20;;;11.20;;
54599;SDS011;40500;51.084;16.958;2023-04-28T01:29:22;18.10;;;10.90;;
54599;SDS011;40500;51.084;16.958;2023-04-28T01:31:53;21.40;;;11.80;;
54599;SDS011;40500;51.084;16.958;2023-04-28T01:34:24;21.60;;;11.90;;
54599;SDS011;40500;51.084;16.958;2023-04-28T01:36:54;23.10;;;12.80;;
54599;SDS011;40500;51.084;16.958;2023-04-28T01:39:24;19.60;;;11.20;;
54599;SDS011;40500;51.084;16.958;2023-04-28T01:41:56;15.40;;;11.10;;
54599;SDS011;40500;51.084;16.958;2023-04-28T01:44:26;19.00;;;11.70;;
54599;SDS011;40500;51.084;16.958;2023-04-28T01:46:57;20.90;;;12.00;;
54599;SDS011;40500;51.084;16.958;2023-04-28T01:49:27;16.60;;;10.50;;
54599;SDS011;40500;51.084;16.958;2023-04-28T01:51:58;18.70;;;11.70;;
54599;SDS011;40500;51.084;16.958;2023-04-28T01:54:29;14.40;;;9.10;;
54599;SDS011;40500;51.084;16.958;2023-04-28T01:57:00;17.40;;;11.30;;
54599;SDS011;40500;51.084;16.958;2023-04-28T01:59:31;23.10;;;11.80;;
54599;SDS011;40500;51.084;16.958;2023-04-28T02:02:02;19.60;;;12.10;;
54599;SDS011;40500;51.084;16.958;2023-04-28T02:04:33;17.80;;;11.70;;
54599;SDS011;40500;51.084;16.958;2023-04-28T02:07:05;17.60;;;10.80;;
54599;SDS011;40500;51.084;16.958;2023-04-28T02:09:36;19.70;;;11.90;;
54599;SDS011;40500;51.084;16.958;2023-04-28T02:12:06;20.20;;;11.30;;
54599;SDS011;40500;51.084;16.958;2023-04-28T02:14:37;13.40;;;10.50;;
54599;SDS011;40500;51.084;16.958;2023-04-28T02:17:07;17.60;;;10.90;;
54599;SDS011;40500;51.084;16.958;2023-04-28T02:19:37;16.00;;;10.40;;
54599;SDS011;40500;51.084;16.958;2023-04-28T02:22:08;15.20;;;10.60;;
54599;SDS011;40500;51.084;16.958;2023-04-28T02:24:40;16.00;;;10.80;;
54599;SDS011;40500;51.084;16.958;2023-04-28T02:27:10;19.60;;;12.80;;
54599;SDS011;40500;51.084;16.958;2023-04-28T02:29:41;18.20;;;12.70;;
54599;SDS011;40500;51.084;16.958;2023-04-28T02:32:11;16.20;;;11.10;;
54599;SDS011;40500;51.084;16.958;2023-04-28T02:34:42;17.90;;;11.20;;
54599;SDS011;40500;51.084;16.958;2023-04-28T02:37:12;16.20;;;10.80;;
54599;SDS011;40500;51.084;16.958;2023-04-28T02:39:43;22.90;;;12.40;;
54599;SDS011;40500;51.084;16.958;2023-04-28T02:42:14;17.40;;;11.10;;
54599;SDS011;40500;51.084;16.958;2023-04-28T02:44:44;17.50;;;10.80;;
54599;SDS011;40500;51.084;16.958;2023-04-28T02:47:15;17.70;;;11.00;;
54599;SDS011;40500;51.084;16.958;2023-04-28T02:49:45;17.80;;;11.50;;
54599;SDS011;40500;51.084;16.958;2023-04-28T02:52:16;19.40;;;11.50;;
54599;SDS011;40500;51.084;16.958;2023-04-28T02:54:47;21.00;;;10.60;;
54599;SDS011;40500;51.084;16.958;2023-04-28T02:57:21;16.60;;;11.80;;
54599;SDS011;40500;51.084;16.958;2023-04-28T02:59:51;18.90;;;11.20;;
54599;SDS011;40500;51.084;16.958;2023-04-28T03:02:23;18.00;;;10.80;;
54599;SDS011;40500;51.084;16.958;2023-04-28T03:04:53;13.30;;;10.10;;
54599;SDS011;40500;51.084;16.958;2023-04-28T03:07:24;18.00;;;10.90;;
54599;SDS011;40500;51.084;16.958;2023-04-28T03:09:55;18.50;;;10.50;;
54599;SDS011;40500;51.084;16.958;2023-04-28T03:12:25;21.30;;;11.50;;
54599;SDS011;40500;51.084;16.958;2023-04-28T03:14:56;14.60;;;9.70;;
54599;SDS011;40500;51.084;16.958;2023-04-28T03:17:27;13.10;;;9.60;;
54599;SDS011;40500;51.084;16.958;2023-04-28T03:19:58;16.70;;;10.70;;
54599;SDS011;40500;51.084;16.958;2023-04-28T03:22:29;19.30;;;11.10;;
54599;SDS011;40500;51.084;16.958;2023-04-28T03:25:00;19.40;;;11.10;;
54599;SDS011;40500;51.084;16.958;2023-04-28T03:27:34;22.60;;;12.10;;
54599;SDS011;40500;51.084;16.958;2023-04-28T03:30:06;20.00;;;12.10;;
54599;SDS011;40500;51.084;16.958;2023-04-28T03:32:37;19.00;;;12.10;;
54599;SDS011;40500;51.084;16.958;2023-04-28T03:35:09;18.20;;;11.50;;
54599;SDS011;40500;51.084;16.958;2023-04-28T03:37:40;16.10;;;9.60;;
54599;SDS011;40500;51.084;16.958;2023-04-28T03:40:11;20.10;;;11.50;;
54599;SDS011;40500;51.084;16.958;2023-04-28T03:43:02;23.90;;;13.80;;
54599;SDS011;40500;51.084;16.958;2023-04-28T03:45:36;25.40;;;13.60;;
54599;SDS011;40500;51.084;16.958;2023-04-28T03:48:08;21.30;;;12.90;;
54599;SDS011;40500;51.084;16.958;2023-04-28T03:50:39;20.50;;;13.10;;
54599;SDS011;40500;51.084;16.958;2023-04-28T03:53:10;26.50;;;14.50;;
54599;SDS011;40500;51.084;16.958;2023-04-28T03:55:40;21.30;;;14.60;;
54599;SDS011;40500;51.084;16.958;2023-04-28T03:58:12;20.00;;;12.80;;
54599;SDS011;40500;51.084;16.958;2023-04-28T04:00:42;16.60;;;11.00;;
54599;SDS011;40500;51.084;16.958;2023-04-28T04:03:13;19.70;;;12.30;;
54599;SDS011;40500;51.084;16.958;2023-04-28T04:05:44;18.90;;;11.50;;
54599;SDS011;40500;51.084;16.958;2023-04-28T04:08:15;22.00;;;13.40;;
54599;SDS011;40500;51.084;16.958;2023-04-28T04:10:46;18.80;;;13.40;;
54599;SDS011;40500;51.084;16.958;2023-04-28T04:13:17;18.50;;;13.10;;
54599;SDS011;40500;51.084;16.958;2023-04-28T04:15:47;27.50;;;15.30;;
54599;SDS011;40500;51.084;16.958;2023-04-28T04:18:20;28.50;;;14.90;;
54599;SDS011;40500;51.084;16.958;2023-04-28T04:21:17;22.40;;;13.00;;
54599;SDS011;40500;51.084;16.958;2023-04-28T04:23:49;27.10;;;15.80;;
54599;SDS011;40500;51.084;16.958;2023-04-28T04:26:19;19.30;;;13.00;;
54599;SDS011;40500;51.084;16.958;2023-04-28T04:28:51;24.90;;;16.00;;
54599;SDS011;40500;51.084;16.958;2023-04-28T04:31:21;21.40;;;13.30;;
54599;SDS011;40500;51.084;16.958;2023-04-28T04:33:52;28.90;;;15.20;;
54599;SDS011;40500;51.084;16.958;2023-04-28T04:36:23;22.90;;;13.60;;
54599;SDS011;40500;51.084;16.958;2023-04-28T04:38:54;23.30;;;13.90;;
54599;SDS011;40500;51.084;16.958;2023-04-28T04:41:25;20.90;;;13.40;;
54599;SDS011;40500;51.084;16.958;2023-04-28T04:44:11;21.80;;;13.10;;
54599;SDS011;40500;51.084;16.958;2023-04-28T04:46:44;22.80;;;12.90;;
54599;SDS011;40500;51.084;16.958;2023-04-28T04:49:15;16.80;;;12.20;;
54599;SDS011;40500;51.084;16.958;2023-04-28T04:51:46;21.60;;;12.20;;
54599;SDS011;40500;51.084;16.958;2023-04-28T04:54:17;23.80;;;13.20;;
54599;SDS011;40500;51.084;16.958;2023-04-28T04:56:47;24.40;;;13.20;;
54599;SDS011;40500;51.084;16.958;2023-04-28T04:59:27;24.40;;;12.90;;
54599;SDS011;40500;51.084;16.958;2023-04-28T05:02:05;16.70;;;11.70;;
54599;SDS011;40500;51.084;16.958;2023-04-28T05:04:36;21.40;;;13.20;;
54599;SDS011;40500;51.084;16.958;2023-04-28T05:07:08;20.00;;;12.70;;
54599;SDS011;40500;51.084;16.958;2023-04-28T05:09:39;19.20;;;12.70;;
54599;SDS011;40500;51.084;16.958;2023-04-28T05:12:11;22.90;;;13.50;;
54599;SDS011;40500;51.084;16.958;2023-04-28T05:14:42;32.00;;;17.20;;
54599;SDS011;40500;51.084;16.958;2023-04-28T05:17:13;24.30;;;15.10;;
54599;SDS011;40500;51.084;16.958;2023-04-28T05:19:43;26.40;;;15.40;;
54599;SDS011;40500;51.084;16.958;2023-04-28T05:22:14;22.10;;;13.30;;
54599;SDS011;40500;51.084;16.958;2023-04-28T05:24:45;25.60;;;13.90;;
54599;SDS011;40500;51.084;16.958;2023-04-28T05:27:15;20.40;;;12.70;;
54599;SDS011;40500;51.084;16.958;2023-04-28T05:29:46;20.20;;;12.90;;
54599;SDS011;40500;51.084;16.958;2023-04-28T05:32:16;25.30;;;13.20;;
54599;SDS011;40500;51.084;16.958;2023-04-28T05:34:48;18.60;;;12.10;;
54599;SDS011;40500;51.084;16.958;2023-04-28T05:37:18;20.60;;;12.70;;
54599;SDS011;40500;51.084;16.958;2023-04-28T05:39:50;22.20;;;13.20;;
54599;SDS011;40500;51.084;16.958;2023-04-28T05:42:21;21.80;;;12.50;;
54599;SDS011;40500;51.084;16.958;2023-04-28T05:44:51;18.90;;;11.10;;
54599;SDS011;40500;51.084;16.958;2023-04-28T05:47:22;22.90;;;12.00;;
54599;SDS011;40500;51.084;16.958;2023-04-28T05:49:53;20.60;;;13.10;;
54599;SDS011;40500;51.084;16.958;2023-04-28T05:52:23;18.80;;;12.00;;
54599;SDS011;40500;51.084;16.958;2023-04-28T05:54:54;18.90;;;10.90;;
54599;SDS011;40500;51.084;16.958;2023-04-28T05:57:24;19.00;;;11.30;;
54599;SDS011;40500;51.084;16.958;2023-04-28T06:00:00;25.50;;;14.10;;
54599;SDS011;40500;51.084;16.958;2023-04-28T06:02:39;27.50;;;13.70;;
54599;SDS011;40500;51.084;16.958;2023-04-28T06:05:10;20.50;;;13.80;;
54599;SDS011;40500;51.084;16.958;2023-04-28T06:07:41;16.80;;;12.20;;
54599;SDS011;40500;51.084;16.958;2023-04-28T06:10:11;19.00;;;12.50;;
54599;SDS011;40500;51.084;16.958;2023-04-28T06:12:42;17.70;;;10.00;;
54599;SDS011;40500;51.084;16.958;2023-04-28T06:15:13;21.80;;;14.00;;
54599;SDS011;40500;51.084;16.958;2023-04-28T06:17:43;19.00;;;12.20;;
54599;SDS011;40500;51.084;16.958;2023-04-28T06:20:15;22.80;;;11.10;;
54599;SDS011;40500;51.084;16.958;2023-04-28T06:22:47;15.80;;;9.60;;
54599;SDS011;40500;51.084;16.958;2023-04-28T06:25:18;15.20;;;11.00;;
54599;SDS011;40500;51.084;16.958;2023-04-28T06:27:49;26.50;;;12.40;;
54599;SDS011;40500;51.084;16.958;2023-04-28T06:30:20;17.10;;;11.30;;
54599;SDS011;40500;51.084;16.958;2023-04-28T06:32:51;17.10;;;12.30;;
54599;SDS011;40500;51.084;16.958;2023-04-28T06:35:24;18.20;;;12.50;;
54599;SDS011;40500;51.084;16.958;2023-04-28T06:37:55;20.10;;;12.70;;
54599;SDS011;40500;51.084;16.958;2023-04-28T06:40:26;15.70;;;10.50;;
54599;SDS011;40500;51.084;16.958;2023-04-28T06:42:58;19.40;;;12.30;;
54599;SDS011;40500;51.084;16.958;2023-04-28T06:45:39;22.70;;;11.90;;
54599;SDS011;40500;51.084;16.958;2023-04-28T06:48:09;19.00;;;12.40;;
54599;SDS011;40500;51.084;16.958;2023-04-28T06:50:40;23.00;;;14.00;;
54599;SDS011;40500;51.084;16.958;2023-04-28T06:53:11;19.20;;;12.00;;
54599;SDS011;40500;51.084;16.958;2023-04-28T06:55:41;20.80;;;12.30;;
54599;SDS011;40500;51.084;16.958;2023-04-28T06:58:12;17.80;;;11.70;;
54599;SDS011;40500;51.084;16.958;2023-04-28T07:00:43;16.30;;;11.40;;
54599;SDS011;40500;51.084;16.958;2023-04-28T07:03:13;15.40;;;10.80;;
54599;SDS011;40500;51.084;16.958;2023-04-28T07:05:44;17.60;;;10.90;;
54599;SDS011;40500;51.084;16.958;2023-04-28T07:08:15;15.70;;;11.10;;
54599;SDS011;40500;51.084;16.958;2023-04-28T07:10:45;16.70;;;9.90;;
54599;SDS011;40500;51.084;16.958;2023-04-28T07:13:16;18.40;;;10.10;;
54599;SDS011;40500;51.084;16.958;2023-04-28T07:15:46;14.00;;;9.20;;
54599;SDS011;40500;51.084;16.958;2023-04-28T07:18:16;12.80;;;8.90;;
54599;SDS011;40500;51.084;16.958;2023-04-28T07:20:47;11.20;;;8.00;;
54599;SDS011;40500;51.084;16.958;2023-04-28T07:23:17;13.90;;;8.50;;
54599;SDS011;40500;51.084;16.958;2023-04-28T07:25:47;13.90;;;8.90;;
54599;SDS011;40500;51.084;16.958;2023-04-28T07:28:18;16.00;;;9.40;;
54599;SDS011;40500;51.084;16.958;2023-04-28T07:30:49;20.10;;;10.10;;
54599;SDS011;40500;51.084;16.958;2023-04-28T07:33:19;17.00;;;11.20;;
54599;SDS011;40500;51.084;16.958;2023-04-28T07:35:50;15.30;;;9.70;;
54599;SDS011;40500;51.084;16.958;2023-04-28T07:38:21;17.10;;;8.20;;
54599;SDS011;40500;51.084;16.958;2023-04-28T07:40:51;11.90;;;8.00;;
54599;SDS011;40500;51.084;16.958;2023-04-28T07:43:22;13.60;;;8.30;;
54599;SDS011;40500;51.084;16.958;2023-04-28T07:45:53;12.20;;;8.40;;
54599;SDS011;40500;51.084;16.958;2023-04-28T07:48:23;12.70;;;7.00;;
54599;SDS011;40500;51.084;16.958;2023-04-28T07:50:54;9.50;;;6.80;;
54599;SDS011;40500;51.084;16.958;2023-04-28T07:53:25;9.50;;;7.00;;
54599;SDS011;40500;51.084;16.958;2023-04-28T07:55:55;9.60;;;6.90;;
54599;SDS011;40500;51.084;16.958;2023-04-28T07:58:27;12.40;;;7.10;;
54599;SDS011;40500;51.084;16.958;2023-04-28T08:00:58;8.70;;;5.10;;
54599;SDS011;40500;51.084;16.958;2023-04-28T08:03:29;12.30;;;5.60;;
54599;SDS011;40500;51.084;16.958;2023-04-28T08:06:00;10.00;;;5.40;;
54599;SDS011;40500;51.084;16.958;2023-04-28T08:08:31;13.00;;;6.40;;
54599;SDS011;40500;51.084;16.958;2023-04-28T08:11:03;7.60;;;4.60;;
54599;SDS011;40500;51.084;16.958;2023-04-28T08:13:34;9.40;;;5.70;;
54599;SDS011;40500;51.084;16.958;2023-04-28T08:16:05;9.00;;;5.20;;
54599;SDS011;40500;51.084;16.958;2023-04-28T08:18:36;6.70;;;5.00;;
54599;SDS011;40500;51.084;16.958;2023-04-28T08:21:07;8.50;;;5.20;;
54599;SDS011;40500;51.084;16.958;2023-04-28T08:23:38;9.70;;;5.40;;
54599;SDS011;40500;51.084;16.958;2023-04-28T08:26:08;7.00;;;4.50;;
54599;SDS011;40500;51.084;16.958;2023-04-28T08:28:38;8.80;;;4.90;;
54599;SDS011;40500;51.084;16.958;2023-04-28T08:31:09;8.30;;;4.60;;
54599;SDS011;40500;51.084;16.958;2023-04-28T08:33:40;11.00;;;5.40;;
54599;SDS011;40500;51.084;16.958;2023-04-28T08:36:15;8.60;;;5.40;;
54599;SDS011;40500;51.084;16.958;2023-04-28T08:38:45;12.00;;;5.10;;
54599;SDS011;40500;51.084;16.958;2023-04-28T08:41:16;11.00;;;5.40;;
54599;SDS011;40500;51.084;16.958;2023-04-28T08:43:48;10.60;;;5.90;;
54599;SDS011;40500;51.084;16.958;2023-04-28T08:46:19;14.80;;;5.70;;
54599;SDS011;40500;51.084;16.958;2023-04-28T08:48:51;9.80;;;5.40;;
54599;SDS011;40500;51.084;16.958;2023-04-28T08:51:31;9.60;;;5.20;;
54599;SDS011;40500;51.084;16.958;2023-04-28T08:54:05;8.90;;;4.60;;
54599;SDS011;40500;51.084;16.958;2023-04-28T08:56:55;5.60;;;4.10;;
54599;SDS011;40500;51.084;16.958;2023-04-28T08:59:26;10.70;;;5.00;;
54599;SDS011;40500;51.084;16.958;2023-04-28T09:01:58;9.30;;;5.00;;
54599;SDS011;40500;51.084;16.958;2023-04-28T09:04:29;6.40;;;4.20;;
54599;SDS011;40500;51.084;16.958;2023-04-28T09:06:59;9.00;;;4.40;;
54599;SDS011;40500;51.084;16.958;2023-04-28T09:09:30;8.50;;;4.50;;
54599;SDS011;40500;51.084;16.958;2023-04-28T09:12:04;6.20;;;4.40;;
54599;SDS011;40500;51.084;16.958;2023-04-28T09:14:36;8.90;;;5.00;;
54599;SDS011;40500;51.084;16.958;2023-04-28T09:17:10;12.50;;;6.30;;
54599;SDS011;40500;51.084;16.958;2023-04-28T09:19:43;7.90;;;4.80;;
54599;SDS011;40500;51.084;16.958;2023-04-28T09:22:13;8.80;;;5.30;;
54599;SDS011;40500;51.084;16.958;2023-04-28T09:24:53;10.90;;;5.60;;
54599;SDS011;40500;51.084;16.958;2023-04-28T09:27:26;6.30;;;4.20;;
54599;SDS011;40500;51.084;16.958;2023-04-28T09:29:57;5.60;;;4.30;;
54599;SDS011;40500;51.084;16.958;2023-04-28T09:32:27;9.10;;;4.70;;
54599;SDS011;40500;51.084;16.958;2023-04-28T09:34:58;5.80;;;4.40;;
54599;SDS011;40500;51.084;16.958;2023-04-28T09:37:32;9.20;;;4.70;;
54599;SDS011;40500;51.084;16.958;2023-04-28T09:40:06;6.40;;;4.00;;
54599;SDS011;40500;51.084;16.958;2023-04-28T09:42:39;5.60;;;4.30;;
54599;SDS011;40500;51.084;16.958;2023-04-28T09:45:11;14.90;;;4.90;;
54599;SDS011;40500;51.084;16.958;2023-04-28T09:47:42;6.40;;;4.00;;
54599;SDS011;40500;51.084;16.958;2023-04-28T09:50:15;7.50;;;4.50;;
54599;SDS011;40500;51.084;16.958;2023-04-28T09:52:54;5.80;;;3.60;;
54599;SDS011;40500;51.084;16.958;2023-04-28T09:55:26;9.60;;;3.30;;
54599;SDS011;40500;51.084;16.958;2023-04-28T09:57:58;5.70;;;4.00;;
54599;SDS011;40500;51.084;16.958;2023-04-28T10:00:34;7.80;;;4.60;;
54599;SDS011;40500;51.084;16.958;2023-04-28T10:03:07;5.80;;;4.20;;
54599;SDS011;40500;51.084;16.958;2023-04-28T10:05:39;8.20;;;3.90;;
54599;SDS011;40500;51.084;16.958;2023-04-28T10:08:11;7.00;;;3.70;;
54599;SDS011;40500;51.084;16.958;2023-04-28T10:10:42;9.80;;;4.60;;
54599;SDS011;40500;51.084;16.958;2023-04-28T10:13:13;7.90;;;4.00;;
54599;SDS011;40500;51.084;16.958;2023-04-28T10:15:44;9.20;;;3.60;;
54599;SDS011;40500;51.084;16.958;2023-04-28T10:18:16;8.90;;;3.60;;
54599;SDS011;40500;51.084;16.958;2023-04-28T10:20:47;8.30;;;4.10;;
54599;SDS011;40500;51.084;16.958;2023-04-28T10:23:27;4.60;;;3.40;;
54599;SDS011;40500;51.084;16.958;2023-04-28T10:26:15;6.40;;;2.90;;
54599;SDS011;40500;51.084;16.958;2023-04-28T10:28:49;4.00;;;2.90;;
54599;SDS011;40500;51.084;16.958;2023-04-28T10:31:20;11.20;;;3.50;;
54599;SDS011;40500;51.084;16.958;2023-04-28T10:33:51;13.50;;;3.10;;
54599;SDS011;40500;51.084;16.958;2023-04-28T10:39:19;14.80;;;4.00;;
54599;SDS011;40500;51.084;16.958;2023-04-28T10:41:51;5.90;;;3.00;;
54599;SDS011;40500;51.084;16.958;2023-04-28T10:44:41;4.70;;;3.30;;
54599;SDS011;40500;51.084;16.958;2023-04-28T10:47:12;7.50;;;3.20;;
54599;SDS011;40500;51.084;16.958;2023-04-28T10:52:50;8.20;;;3.40;;
54599;SDS011;40500;51.084;16.958;2023-04-28T10:55:27;12.40;;;3.30;;
54599;SDS011;40500;51.084;16.958;2023-04-28T11:03:54;6.20;;;3.20;;
54599;SDS011;40500;51.084;16.958;2023-04-28T11:06:31;7.90;;;2.90;;
54599;SDS011;40500;51.084;16.958;2023-04-28T11:09:45;5.70;;;3.40;;
54599;SDS011;40500;51.084;16.958;2023-04-28T11:12:11;7.70;;;3.20;;
54599;SDS011;40500;51.084;16.958;2023-04-28T11:14:42;7.50;;;3.20;;
54599;SDS011;40500;51.084;16.958;2023-04-28T11:17:13;4.70;;;3.00;;
54599;SDS011;40500;51.084;16.958;2023-04-28T11:19:46;6.40;;;3.00;;
54599;SDS011;40500;51.084;16.958;2023-04-28T11:22:18;3.50;;;2.70;;
54599;SDS011;40500;51.084;16.958;2023-04-28T11:24:57;11.10;;;3.60;;
54599;SDS011;40500;51.084;16.958;2023-04-28T11:27:29;4.90;;;2.60;;
54599;SDS011;40500;51.084;16.958;2023-04-28T11:30:01;8.70;;;2.20;;
54599;SDS011;40500;51.084;16.958;2023-04-28T11:32:48;3.40;;;2.80;;
54599;SDS011;40500;51.084;16.958;2023-04-28T11:35:19;13.00;;;2.60;;
54599;SDS011;40500;51.084;16.958;2023-04-28T11:38:01;6.10;;;2.60;;
54599;SDS011;40500;51.084;16.958;2023-04-28T11:40:31;4.00;;;2.30;;
54599;SDS011;40500;51.084;16.958;2023-04-28T11:43:02;3.40;;;1.90;;
54599;SDS011;40500;51.084;16.958;2023-04-28T11:45:33;22.90;;;2.80;;
54599;SDS011;40500;51.084;16.958;2023-04-28T11:50:51;2.40;;;2.00;;
54599;SDS011;40500;51.084;16.958;2023-04-28T11:53:39;14.40;;;2.80;;
54599;SDS011;40500;51.084;16.958;2023-04-28T11:56:10;5.40;;;2.00;;
54599;SDS011;40500;51.084;16.958;2023-04-28T11:58:40;2.40;;;2.00;;
54599;SDS011;40500;51.084;16.958;2023-04-28T12:01:11;4.50;;;2.20;;
54599;SDS011;40500;51.084;16.958;2023-04-28T12:03:43;2.20;;;2.00;;
54599;SDS011;40500;51.084;16.958;2023-04-28T12:06:17;3.00;;;1.80;;
54599;SDS011;40500;51.084;16.958;2023-04-28T12:08:47;5.50;;;2.50;;
54599;SDS011;40500;51.084;16.958;2023-04-28T12:11:18;4.40;;;1.80;;
54599;SDS011;40500;51.084;16.958;2023-04-28T12:14:05;4.60;;;1.60;;
54599;SDS011;40500;51.084;16.958;2023-04-28T12:16:37;5.50;;;1.70;;
54599;SDS011;40500;51.084;16.958;2023-04-28T12:19:11;17.70;;;2.60;;
54599;SDS011;40500;51.084;16.958;2023-04-28T12:21:42;5.60;;;1.50;;
54599;SDS011;40500;51.084;16.958;2023-04-28T12:24:28;5.70;;;2.00;;
54599;SDS011;40500;51.084;16.958;2023-04-28T12:27:15;5.30;;;2.20;;
54599;SDS011;40500;51.084;16.958;2023-04-28T12:29:48;3.40;;;1.60;;
54599;SDS011;40500;51.084;16.958;2023-04-28T12:32:19;10.30;;;1.90;;
54599;SDS011;40500;51.084;16.958;2023-04-28T12:35:05;3.00;;;1.60;;
54599;SDS011;40500;51.084;16.958;2023-04-28T12:37:37;4.10;;;1.90;;
54599;SDS011;40500;51.084;16.958;2023-04-28T12:40:10;5.70;;;1.70;;
54599;SDS011;40500;51.084;16.958;2023-04-28T12:42:41;7.70;;;1.90;;
54599;SDS011;40500;51.084;16.958;2023-04-28T12:45:11;6.60;;;1.90;;
54599;SDS011;40500;51.084;16.958;2023-04-28T12:47:43;5.20;;;1.80;;
54599;SDS011;40500;51.084;16.958;2023-04-28T12:50:15;9.70;;;1.80;;
54599;SDS011;40500;51.084;16.958;2023-04-28T12:52:45;4.70;;;1.50;;
54599;SDS011;40500;51.084;16.958;2023-04-28T12:55:16;32.00;;;3.20;;
54599;SDS011;40500;51.084;16.958;2023-04-28T12:57:46;6.80;;;1.60;;
54599;SDS011;40500;51.084;16.958;2023-04-28T13:00:17;3.00;;;1.40;;
54599;SDS011;40500;51.084;16.958;2023-04-28T13:02:50;3.20;;;1.40;;
54599;SDS011;40500;51.084;16.958;2023-04-28T13:05:20;6.80;;;1.60;;
54599;SDS011;40500;51.084;16.958;2023-04-28T13:07:51;9.80;;;1.40;;
54599;SDS011;40500;51.084;16.958;2023-04-28T13:10:23;4.90;;;1.40;;
54599;SDS011;40500;51.084;16.958;2023-04-28T13:12:53;2.60;;;1.50;;
54599;SDS011;40500;51.084;16.958;2023-04-28T13:15:23;9.60;;;1.50;;
54599;SDS011;40500;51.084;16.958;2023-04-28T13:17:54;3.40;;;1.60;;
54599;SDS011;40500;51.084;16.958;2023-04-28T13:20:26;1.90;;;1.10;;
54599;SDS011;40500;51.084;16.958;2023-04-28T13:22:56;2.80;;;1.20;;
54599;SDS011;40500;51.084;16.958;2023-04-28T13:25:27;4.30;;;1.60;;
54599;SDS011;40500;51.084;16.958;2023-04-28T13:27:57;1.60;;;1.20;;
54599;SDS011;40500;51.084;16.958;2023-04-28T13:30:28;4.50;;;1.30;;
54599;SDS011;40500;51.084;16.958;2023-04-28T13:33:00;3.40;;;1.50;;
54599;SDS011;40500;51.084;16.958;2023-04-28T13:35:31;3.90;;;1.30;;
54599;SDS011;40500;51.084;16.958;2023-04-28T13:38:01;3.90;;;1.30;;
54599;SDS011;40500;51.084;16.958;2023-04-28T13:40:33;5.20;;;1.40;;
54599;SDS011;40500;51.084;16.958;2023-04-28T13:43:03;4.20;;;1.40;;
54599;SDS011;40500;51.084;16.958;2023-04-28T13:45:34;8.00;;;1.60;;
54599;SDS011;40500;51.084;16.958;2023-04-28T13:48:05;3.30;;;1.50;;
54599;SDS011;40500;51.084;16.958;2023-04-28T13:50:36;1.90;;;1.30;;
54599;SDS011;40500;51.084;16.958;2023-04-28T13:53:07;11.40;;;1.70;;
54599;SDS011;40500;51.084;16.958;2023-04-28T13:55:37;7.00;;;1.90;;
54599;SDS011;40500;51.084;16.958;2023-04-28T13:58:07;3.40;;;1.70;;
54599;SDS011;40500;51.084;16.958;2023-04-28T14:00:38;2.70;;;1.40;;
54599;SDS011;40500;51.084;16.958;2023-04-28T14:03:08;5.60;;;1.60;;
54599;SDS011;40500;51.084;16.958;2023-04-28T14:05:39;5.10;;;1.40;;
54599;SDS011;40500;51.084;16.958;2023-04-28T14:08:16;5.40;;;1.70;;
54599;SDS011;40500;51.084;16.958;2023-04-28T14:10:48;5.60;;;1.50;;
54599;SDS011;40500;51.084;16.958;2023-04-28T14:13:19;5.10;;;1.40;;
54599;SDS011;40500;51.084;16.958;2023-04-28T14:15:51;3.50;;;1.80;;
54599;SDS011;40500;51.084;16.958;2023-04-28T14:18:26;3.20;;;1.50;;
54599;SDS011;40500;51.084;16.958;2023-04-28T14:20:56;2.30;;;1.50;;
54599;SDS011;40500;51.084;16.958;2023-04-28T14:23:28;4.50;;;1.30;;
54599;SDS011;40500;51.084;16.958;2023-04-28T14:25:58;3.20;;;1.30;;
54599;SDS011;40500;51.084;16.958;2023-04-28T14:28:29;2.80;;;1.70;;
54599;SDS011;40500;51.084;16.958;2023-04-28T14:31:02;1.80;;;1.40;;
54599;SDS011;40500;51.084;16.958;2023-04-28T14:33:35;3.50;;;1.70;;
54599;SDS011;40500;51.084;16.958;2023-04-28T14:36:06;5.10;;;2.00;;
54599;SDS011;40500;51.084;16.958;2023-04-28T14:38:36;3.00;;;1.70;;
54599;SDS011;40500;51.084;16.958;2023-04-28T14:41:08;2.90;;;1.50;;
54599;SDS011;40500;51.084;16.958;2023-04-28T14:43:38;5.00;;;1.70;;
54599;SDS011;40500;51.084;16.958;2023-04-28T14:46:08;7.50;;;1.30;;
54599;SDS011;40500;51.084;16.958;2023-04-28T14:48:40;7.80;;;1.40;;
54599;SDS011;40500;51.084;16.958;2023-04-28T14:51:11;4.30;;;1.60;;
54599;SDS011;40500;51.084;16.958;2023-04-28T14:53:42;4.20;;;1.70;;
54599;SDS011;40500;51.084;16.958;2023-04-28T14:56:13;3.20;;;1.70;;
54599;SDS011;40500;51.084;16.958;2023-04-28T14:58:46;8.20;;;1.80;;
54599;SDS011;40500;51.084;16.958;2023-04-28T15:01:17;5.20;;;1.50;;
54599;SDS011;40500;51.084;16.958;2023-04-28T15:03:47;4.40;;;1.70;;